sensor_id;sensor_type;location;lat;lon;timestamp;temperature;humidity
16263;DHT22;8239;48.594;8.598;2023-02-26T00:00:37;-2.20;99.90
16263;DHT22;8239;48.594;8.598;2023-02-26T00:03:04;-2.20;99.90
16263;DHT22;8239;48.594;8.598;2023-02-26T00:05:31;-2.20;99.90
16263;DHT22;8239;48.594;8.598;2023-02-26T00:07:58;-2.20;99.90
16263;DHT22;8239;48.594;8.598;2023-02-26T00:10:25;-2.20;99.90
16263;DHT22;8239;48.594;8.598;2023-02-26T00:12:53;-2.20;99.90
16263;DHT22;8239;48.594;8.598;2023-02-26T00:15:20;-2.20;99.90
16263;DHT22;8239;48.594;8.598;2023-02-26T00:17:55;-2.20;99.90
16263;DHT22;8239;48.594;8.598;2023-02-26T00:20:24;-2.30;99.90
16263;DHT22;8239;48.594;8.598;2023-02-26T00:22:52;-2.30;99.90
16263;DHT22;8239;48.594;8.598;2023-02-26T00:25:19;-2.30;99.90
16263;DHT22;8239;48.594;8.598;2023-02-26T00:27:46;-2.40;99.90
16263;DHT22;8239;48.594;8.598;2023-02-26T00:30:14;-2.40;99.90
16263;DHT22;8239;48.594;8.598;2023-02-26T00:32:45;-2.40;99.90
16263;DHT22;8239;48.594;8.598;2023-02-26T00:35:15;-2.50;99.90
16263;DHT22;8239;48.594;8.598;2023-02-26T00:37:56;-2.50;99.90
16263;DHT22;8239;48.594;8.598;2023-02-26T00:40:33;-2.50;99.90
16263;DHT22;8239;48.594;8.598;2023-02-26T00:43:01;-2.60;99.90
16263;DHT22;8239;48.594;8.598;2023-02-26T00:45:29;-2.60;99.90
16263;DHT22;8239;48.594;8.598;2023-02-26T00:48:12;-2.70;99.90
16263;DHT22;8239;48.594;8.598;2023-02-26T00:50:48;-2.70;99.90
16263;DHT22;8239;48.594;8.598;2023-02-26T00:53:22;-2.80;99.90
16263;DHT22;8239;48.594;8.598;2023-02-26T00:55:51;-2.90;99.90
16263;DHT22;8239;48.594;8.598;2023-02-26T00:58:18;-3.00;99.90
16263;DHT22;8239;48.594;8.598;2023-02-26T01:00:45;-3.10;99.90
16263;DHT22;8239;48.594;8.598;2023-02-26T01:03:12;-3.20;99.90
16263;DHT22;8239;48.594;8.598;2023-02-26T01:05:40;-3.30;99.90
16263;DHT22;8239;48.594;8.598;2023-02-26T01:08:14;-3.40;99.90
16263;DHT22;8239;48.594;8.598;2023-02-26T01:10:42;-3.50;99.90
16263;DHT22;8239;48.594;8.598;2023-02-26T01:13:10;-3.50;99.90
16263;DHT22;8239;48.594;8.598;2023-02-26T01:15:38;-3.60;99.90
16263;DHT22;8239;48.594;8.598;2023-02-26T01:18:12;-3.70;99.90
16263;DHT22;8239;48.594;8.598;2023-02-26T01:20:45;-3.70;99.90
16263;DHT22;8239;48.594;8.598;2023-02-26T01:23:16;-3.70;99.90
16263;DHT22;8239;48.594;8.598;2023-02-26T01:25:49;-3.70;99.90
16263;DHT22;8239;48.594;8.598;2023-02-26T01:28:17;-3.80;99.90
16263;DHT22;8239;48.594;8.598;2023-02-26T01:30:44;-3.80;99.90
16263;DHT22;8239;48.594;8.598;2023-02-26T01:33:18;-3.80;99.90
16263;DHT22;8239;48.594;8.598;2023-02-26T01:35:50;-3.80;99.90
16263;DHT22;8239;48.594;8.598;2023-02-26T01:38:24;-3.80;99.90
16263;DHT22;8239;48.594;8.598;2023-02-26T01:41:23;-3.80;99.90
16263;DHT22;8239;48.594;8.598;2023-02-26T01:43:59;-3.70;99.90
16263;DHT22;8239;48.594;8.598;2023-02-26T01:46:34;-3.60;99.90
16263;DHT22;8239;48.594;8.598;2023-02-26T01:49:03;-3.60;99.90
16263;DHT22;8239;48.594;8.598;2023-02-26T01:51:44;-3.50;99.90
16263;DHT22;8239;48.594;8.598;2023-02-26T01:54:15;-3.50;99.90
16263;DHT22;8239;48.594;8.598;2023-02-26T01:56:43;-3.40;99.90
16263;DHT22;8239;48.594;8.598;2023-02-26T01:59:14;-3.30;99.90
16263;DHT22;8239;48.594;8.598;2023-02-26T02:01:41;-3.30;99.90
16263;DHT22;8239;48.594;8.598;2023-02-26T02:04:11;-3.20;99.90
16263;DHT22;8239;48.594;8.598;2023-02-26T02:06:38;-3.20;99.90
16263;DHT22;8239;48.594;8.598;2023-02-26T02:09:06;-3.20;99.90
16263;DHT22;8239;48.594;8.598;2023-02-26T02:11:42;-3.20;99.90
16263;DHT22;8239;48.594;8.598;2023-02-26T02:14:14;-3.10;99.90
16263;DHT22;8239;48.594;8.598;2023-02-26T02:16:47;-3.10;99.90
16263;DHT22;8239;48.594;8.598;2023-02-26T02:19:45;-3.10;99.90
16263;DHT22;8239;48.594;8.598;2023-02-26T02:22:33;-3.10;99.90
16263;DHT22;8239;48.594;8.598;2023-02-26T02:25:11;-3.00;99.90
16263;DHT22;8239;48.594;8.598;2023-02-26T02:27:50;-3.00;99.90
16263;DHT22;8239;48.594;8.598;2023-02-26T02:30:29;-3.00;99.90
16263;DHT22;8239;48.594;8.598;2023-02-26T02:33:02;-3.00;99.90
16263;DHT22;8239;48.594;8.598;2023-02-26T02:35:33;-3.00;99.90
16263;DHT22;8239;48.594;8.598;2023-02-26T02:38:06;-3.10;99.90
16263;DHT22;8239;48.594;8.598;2023-02-26T02:40:39;-3.20;99.90
16263;DHT22;8239;48.594;8.598;2023-02-26T02:43:09;-3.30;99.90
16263;DHT22;8239;48.594;8.598;2023-02-26T02:45:42;-3.30;99.90
16263;DHT22;8239;48.594;8.598;2023-02-26T02:48:15;-3.30;99.90
16263;DHT22;8239;48.594;8.598;2023-02-26T02:50:46;-3.30;99.90
16263;DHT22;8239;48.594;8.598;2023-02-26T02:53:17;-3.40;99.90
16263;DHT22;8239;48.594;8.598;2023-02-26T02:55:51;-3.30;99.90
16263;DHT22;8239;48.594;8.598;2023-02-26T02:58:23;-3.30;99.90
16263;DHT22;8239;48.594;8.598;2023-02-26T03:00:54;-3.30;99.90
16263;DHT22;8239;48.594;8.598;2023-02-26T03:03:28;-3.40;99.90
16263;DHT22;8239;48.594;8.598;2023-02-26T03:05:57;-3.40;99.90
16263;DHT22;8239;48.594;8.598;2023-02-26T03:08:26;-3.40;99.90
16263;DHT22;8239;48.594;8.598;2023-02-26T03:10:54;-3.40;99.90
16263;DHT22;8239;48.594;8.598;2023-02-26T03:13:24;-3.50;99.90
16263;DHT22;8239;48.594;8.598;2023-02-26T03:15:58;-3.60;99.90
16263;DHT22;8239;48.594;8.598;2023-02-26T03:21:05;-3.90;99.90
16263;DHT22;8239;48.594;8.598;2023-02-26T03:23:37;-4.10;99.90
16263;DHT22;8239;48.594;8.598;2023-02-26T03:26:10;-4.20;99.90
16263;DHT22;8239;48.594;8.598;2023-02-26T03:28:43;-4.30;99.90
16263;DHT22;8239;48.594;8.598;2023-02-26T03:31:15;-4.40;99.90
16263;DHT22;8239;48.594;8.598;2023-02-26T03:33:51;-4.50;99.90
16263;DHT22;8239;48.594;8.598;2023-02-26T03:36:24;-4.50;99.90
16263;DHT22;8239;48.594;8.598;2023-02-26T03:38:58;-4.60;99.90
16263;DHT22;8239;48.594;8.598;2023-02-26T03:41:31;-4.70;99.90
16263;DHT22;8239;48.594;8.598;2023-02-26T03:44:02;-4.80;99.90
16263;DHT22;8239;48.594;8.598;2023-02-26T03:46:34;-4.90;99.90
16263;DHT22;8239;48.594;8.598;2023-02-26T03:49:06;-5.00;99.90
16263;DHT22;8239;48.594;8.598;2023-02-26T03:51:37;-5.00;99.90
16263;DHT22;8239;48.594;8.598;2023-02-26T03:54:21;-5.10;99.90
16263;DHT22;8239;48.594;8.598;2023-02-26T03:56:49;-5.10;99.90
16263;DHT22;8239;48.594;8.598;2023-02-26T03:59:17;-5.10;99.90
16263;DHT22;8239;48.594;8.598;2023-02-26T04:01:48;-5.10;99.90
16263;DHT22;8239;48.594;8.598;2023-02-26T04:04:22;-5.10;99.90
16263;DHT22;8239;48.594;8.598;2023-02-26T04:06:52;-5.10;99.90
16263;DHT22;8239;48.594;8.598;2023-02-26T04:09:20;-5.10;99.90
16263;DHT22;8239;48.594;8.598;2023-02-26T04:11:49;-5.00;99.90
16263;DHT22;8239;48.594;8.598;2023-02-26T04:14:17;-5.00;99.90
16263;DHT22;8239;48.594;8.598;2023-02-26T04:16:44;-5.00;99.90
16263;DHT22;8239;48.594;8.598;2023-02-26T04:19:11;-5.00;99.90
16263;DHT22;8239;48.594;8.598;2023-02-26T04:21:38;-5.00;99.90
16263;DHT22;8239;48.594;8.598;2023-02-26T04:24:07;-5.10;99.90
16263;DHT22;8239;48.594;8.598;2023-02-26T04:26:34;-5.10;99.90
16263;DHT22;8239;48.594;8.598;2023-02-26T04:29:01;-5.20;99.90
16263;DHT22;8239;48.594;8.598;2023-02-26T04:31:28;-5.20;99.90
16263;DHT22;8239;48.594;8.598;2023-02-26T04:33:58;-5.30;99.90
16263;DHT22;8239;48.594;8.598;2023-02-26T04:36:25;-5.30;99.90
16263;DHT22;8239;48.594;8.598;2023-02-26T04:38:52;-5.20;99.90
16263;DHT22;8239;48.594;8.598;2023-02-26T04:41:21;-5.10;99.90
16263;DHT22;8239;48.594;8.598;2023-02-26T04:43:48;-5.00;99.90
16263;DHT22;8239;48.594;8.598;2023-02-26T04:46:15;-4.90;99.90
16263;DHT22;8239;48.594;8.598;2023-02-26T04:48:42;-4.80;99.90
16263;DHT22;8239;48.594;8.598;2023-02-26T04:51:09;-4.70;99.90
16263;DHT22;8239;48.594;8.598;2023-02-26T04:53:36;-4.60;99.90
16263;DHT22;8239;48.594;8.598;2023-02-26T04:56:03;-4.50;99.90
16263;DHT22;8239;48.594;8.598;2023-02-26T04:58:32;-4.50;99.90
16263;DHT22;8239;48.594;8.598;2023-02-26T05:00:59;-4.40;99.90
16263;DHT22;8239;48.594;8.598;2023-02-26T05:03:26;-4.30;99.90
16263;DHT22;8239;48.594;8.598;2023-02-26T05:05:53;-4.30;99.90
16263;DHT22;8239;48.594;8.598;2023-02-26T05:08:20;-4.30;99.90
16263;DHT22;8239;48.594;8.598;2023-02-26T05:10:47;-4.40;99.90
16263;DHT22;8239;48.594;8.598;2023-02-26T05:13:15;-4.50;99.90
16263;DHT22;8239;48.594;8.598;2023-02-26T05:15:44;-4.60;99.90
16263;DHT22;8239;48.594;8.598;2023-02-26T05:18:11;-4.70;99.90
16263;DHT22;8239;48.594;8.598;2023-02-26T05:20:41;-4.70;99.90
16263;DHT22;8239;48.594;8.598;2023-02-26T05:23:09;-4.80;99.90
16263;DHT22;8239;48.594;8.598;2023-02-26T05:25:36;-4.90;99.90
16263;DHT22;8239;48.594;8.598;2023-02-26T05:28:03;-5.00;99.90
16263;DHT22;8239;48.594;8.598;2023-02-26T05:30:31;-5.10;99.90
16263;DHT22;8239;48.594;8.598;2023-02-26T05:32:59;-5.10;99.90
16263;DHT22;8239;48.594;8.598;2023-02-26T05:35:26;-5.20;99.90
16263;DHT22;8239;48.594;8.598;2023-02-26T05:37:53;-5.30;99.90
16263;DHT22;8239;48.594;8.598;2023-02-26T05:40:21;-5.30;99.90
16263;DHT22;8239;48.594;8.598;2023-02-26T05:42:48;-5.40;99.90
16263;DHT22;8239;48.594;8.598;2023-02-26T05:45:16;-5.40;99.90
16263;DHT22;8239;48.594;8.598;2023-02-26T05:47:44;-5.40;99.90
16263;DHT22;8239;48.594;8.598;2023-02-26T05:50:12;-5.40;99.90
16263;DHT22;8239;48.594;8.598;2023-02-26T05:52:40;-5.30;99.90
16263;DHT22;8239;48.594;8.598;2023-02-26T05:55:08;-5.30;99.90
16263;DHT22;8239;48.594;8.598;2023-02-26T05:57:35;-5.30;99.90
16263;DHT22;8239;48.594;8.598;2023-02-26T06:00:03;-5.30;99.90
16263;DHT22;8239;48.594;8.598;2023-02-26T06:02:31;-5.30;99.90
16263;DHT22;8239;48.594;8.598;2023-02-26T06:04:59;-5.30;99.90
16263;DHT22;8239;48.594;8.598;2023-02-26T06:07:27;-5.30;99.90
16263;DHT22;8239;48.594;8.598;2023-02-26T06:09:54;-5.30;99.90
16263;DHT22;8239;48.594;8.598;2023-02-26T06:12:21;-5.30;99.90
16263;DHT22;8239;48.594;8.598;2023-02-26T06:14:48;-5.30;99.90
16263;DHT22;8239;48.594;8.598;2023-02-26T06:17:16;-5.30;99.90
16263;DHT22;8239;48.594;8.598;2023-02-26T06:19:43;-5.30;99.90
16263;DHT22;8239;48.594;8.598;2023-02-26T06:22:10;-5.30;99.90
16263;DHT22;8239;48.594;8.598;2023-02-26T06:24:39;-5.30;99.90
16263;DHT22;8239;48.594;8.598;2023-02-26T06:27:06;-5.30;99.90
16263;DHT22;8239;48.594;8.598;2023-02-26T06:29:33;-5.30;99.90
16263;DHT22;8239;48.594;8.598;2023-02-26T06:32:02;-5.30;99.90
16263;DHT22;8239;48.594;8.598;2023-02-26T06:34:29;-5.30;99.90
16263;DHT22;8239;48.594;8.598;2023-02-26T06:36:56;-5.10;99.90
16263;DHT22;8239;48.594;8.598;2023-02-26T06:39:29;-4.80;99.90
16263;DHT22;8239;48.594;8.598;2023-02-26T06:41:58;-4.20;99.90
16263;DHT22;8239;48.594;8.598;2023-02-26T06:44:26;-3.60;99.90
16263;DHT22;8239;48.594;8.598;2023-02-26T06:46:53;-3.20;99.90
16263;DHT22;8239;48.594;8.598;2023-02-26T06:49:32;-3.00;99.90
16263;DHT22;8239;48.594;8.598;2023-02-26T06:52:05;-2.80;99.90
16263;DHT22;8239;48.594;8.598;2023-02-26T06:54:48;-2.40;99.90
16263;DHT22;8239;48.594;8.598;2023-02-26T06:57:21;-1.80;99.90
16263;DHT22;8239;48.594;8.598;2023-02-26T06:59:48;-1.30;99.90
16263;DHT22;8239;48.594;8.598;2023-02-26T07:02:18;-0.90;99.90
16263;DHT22;8239;48.594;8.598;2023-02-26T07:04:45;-0.70;99.90
16263;DHT22;8239;48.594;8.598;2023-02-26T07:07:13;-0.70;99.90
16263;DHT22;8239;48.594;8.598;2023-02-26T07:09:40;-0.90;99.90
16263;DHT22;8239;48.594;8.598;2023-02-26T07:12:07;-1.10;99.90
16263;DHT22;8239;48.594;8.598;2023-02-26T07:14:36;-1.30;99.90
16263;DHT22;8239;48.594;8.598;2023-02-26T07:17:03;-1.20;99.90
16263;DHT22;8239;48.594;8.598;2023-02-26T07:19:30;-1.10;99.90
16263;DHT22;8239;48.594;8.598;2023-02-26T07:21:57;-1.00;99.90
16263;DHT22;8239;48.594;8.598;2023-02-26T07:24:24;-0.90;99.90
16263;DHT22;8239;48.594;8.598;2023-02-26T07:26:51;-0.90;99.90
16263;DHT22;8239;48.594;8.598;2023-02-26T07:29:18;-1.00;99.90
16263;DHT22;8239;48.594;8.598;2023-02-26T07:31:50;-1.20;99.90
16263;DHT22;8239;48.594;8.598;2023-02-26T07:34:18;-1.30;99.90
16263;DHT22;8239;48.594;8.598;2023-02-26T07:36:53;-1.40;99.90
16263;DHT22;8239;48.594;8.598;2023-02-26T07:39:21;-1.50;99.90
16263;DHT22;8239;48.594;8.598;2023-02-26T07:41:48;-1.40;99.90
16263;DHT22;8239;48.594;8.598;2023-02-26T07:44:18;-1.50;99.90
16263;DHT22;8239;48.594;8.598;2023-02-26T07:46:51;-1.40;99.90
16263;DHT22;8239;48.594;8.598;2023-02-26T07:49:18;-1.30;99.90
16263;DHT22;8239;48.594;8.598;2023-02-26T07:51:46;-1.20;99.90
16263;DHT22;8239;48.594;8.598;2023-02-26T07:54:13;-1.10;99.90
16263;DHT22;8239;48.594;8.598;2023-02-26T07:56:40;-1.00;99.90
16263;DHT22;8239;48.594;8.598;2023-02-26T07:59:10;-1.00;99.90
16263;DHT22;8239;48.594;8.598;2023-02-26T08:01:37;-0.80;99.90
16263;DHT22;8239;48.594;8.598;2023-02-26T08:04:06;-0.80;99.60
16263;DHT22;8239;48.594;8.598;2023-02-26T08:06:33;-0.70;99.40
16263;DHT22;8239;48.594;8.598;2023-02-26T08:09:00;-0.70;99.20
16263;DHT22;8239;48.594;8.598;2023-02-26T08:11:27;-0.50;99.20
16263;DHT22;8239;48.594;8.598;2023-02-26T08:13:54;-0.50;98.70
16263;DHT22;8239;48.594;8.598;2023-02-26T08:16:22;-0.50;98.20
16263;DHT22;8239;48.594;8.598;2023-02-26T08:18:49;-0.50;98.00
16263;DHT22;8239;48.594;8.598;2023-02-26T08:21:17;-0.60;98.10
16263;DHT22;8239;48.594;8.598;2023-02-26T08:23:44;-0.60;98.20
16263;DHT22;8239;48.594;8.598;2023-02-26T08:26:11;-0.50;98.30
16263;DHT22;8239;48.594;8.598;2023-02-26T08:28:41;-0.10;98.80
16263;DHT22;8239;48.594;8.598;2023-02-26T08:31:08;0.40;99.50
16263;DHT22;8239;48.594;8.598;2023-02-26T08:33:35;1.20;98.50
16263;DHT22;8239;48.594;8.598;2023-02-26T08:36:03;2.20;97.20
16263;DHT22;8239;48.594;8.598;2023-02-26T08:38:32;2.70;91.90
16263;DHT22;8239;48.594;8.598;2023-02-26T08:41:00;2.90;88.90
16263;DHT22;8239;48.594;8.598;2023-02-26T08:43:27;2.80;86.00
16263;DHT22;8239;48.594;8.598;2023-02-26T08:45:56;2.50;84.50
16263;DHT22;8239;48.594;8.598;2023-02-26T08:48:24;2.20;82.80
16263;DHT22;8239;48.594;8.598;2023-02-26T08:50:51;1.70;82.20
16263;DHT22;8239;48.594;8.598;2023-02-26T08:53:19;1.50;84.10
16263;DHT22;8239;48.594;8.598;2023-02-26T08:55:48;1.20;85.00
16263;DHT22;8239;48.594;8.598;2023-02-26T08:58:15;0.90;86.00
16263;DHT22;8239;48.594;8.598;2023-02-26T09:00:43;0.70;86.90
16263;DHT22;8239;48.594;8.598;2023-02-26T09:03:10;0.40;88.20
16263;DHT22;8239;48.594;8.598;2023-02-26T09:05:37;0.20;90.00
16263;DHT22;8239;48.594;8.598;2023-02-26T09:08:05;0.10;91.30
16263;DHT22;8239;48.594;8.598;2023-02-26T09:10:32;0.10;92.00
16263;DHT22;8239;48.594;8.598;2023-02-26T09:13:01;0.10;92.30
16263;DHT22;8239;48.594;8.598;2023-02-26T09:15:28;0.20;92.60
16263;DHT22;8239;48.594;8.598;2023-02-26T09:17:55;0.20;92.40
16263;DHT22;8239;48.594;8.598;2023-02-26T09:20:22;0.10;92.50
16263;DHT22;8239;48.594;8.598;2023-02-26T09:22:49;0.10;93.10
16263;DHT22;8239;48.594;8.598;2023-02-26T09:25:16;0.20;93.20
16263;DHT22;8239;48.594;8.598;2023-02-26T09:27:43;0.30;93.00
16263;DHT22;8239;48.594;8.598;2023-02-26T09:30:13;0.30;92.80
16263;DHT22;8239;48.594;8.598;2023-02-26T09:32:40;0.20;92.40
16263;DHT22;8239;48.594;8.598;2023-02-26T09:35:07;0.20;92.40
16263;DHT22;8239;48.594;8.598;2023-02-26T09:37:34;0.10;92.30
16263;DHT22;8239;48.594;8.598;2023-02-26T09:40:01;0.00;91.80
16263;DHT22;8239;48.594;8.598;2023-02-26T09:42:44;-0.10;92.20
16263;DHT22;8239;48.594;8.598;2023-02-26T09:45:24;-0.20;91.80
16263;DHT22;8239;48.594;8.598;2023-02-26T09:47:53;-0.50;91.90
16263;DHT22;8239;48.594;8.598;2023-02-26T09:50:23;-0.70;92.40
16263;DHT22;8239;48.594;8.598;2023-02-26T09:52:54;-0.80;92.70
16263;DHT22;8239;48.594;8.598;2023-02-26T09:55:27;-0.90;93.20
16263;DHT22;8239;48.594;8.598;2023-02-26T09:57:58;-0.80;93.80
16263;DHT22;8239;48.594;8.598;2023-02-26T10:00:35;-0.70;94.00
16263;DHT22;8239;48.594;8.598;2023-02-26T10:03:14;-0.70;93.90
16263;DHT22;8239;48.594;8.598;2023-02-26T10:05:47;-0.60;94.30
16263;DHT22;8239;48.594;8.598;2023-02-26T10:08:18;-0.60;94.40
16263;DHT22;8239;48.594;8.598;2023-02-26T10:10:50;-0.60;94.30
16263;DHT22;8239;48.594;8.598;2023-02-26T10:13:24;-0.70;94.70
16263;DHT22;8239;48.594;8.598;2023-02-26T10:15:57;-0.70;95.20
16263;DHT22;8239;48.594;8.598;2023-02-26T10:18:30;-0.70;95.80
16263;DHT22;8239;48.594;8.598;2023-02-26T10:21:03;-0.70;96.20
16263;DHT22;8239;48.594;8.598;2023-02-26T10:23:37;-0.70;96.50
16263;DHT22;8239;48.594;8.598;2023-02-26T10:26:10;-0.70;96.80
16263;DHT22;8239;48.594;8.598;2023-02-26T10:28:51;-0.80;96.60
16263;DHT22;8239;48.594;8.598;2023-02-26T10:31:28;-0.80;96.80
16263;DHT22;8239;48.594;8.598;2023-02-26T10:34:20;-0.90;97.00
16263;DHT22;8239;48.594;8.598;2023-02-26T10:36:56;-1.00;97.20
16263;DHT22;8239;48.594;8.598;2023-02-26T10:39:31;-1.00;97.50
16263;DHT22;8239;48.594;8.598;2023-02-26T10:42:01;-1.10;97.30
16263;DHT22;8239;48.594;8.598;2023-02-26T10:44:34;-1.20;97.50
16263;DHT22;8239;48.594;8.598;2023-02-26T10:47:11;-1.30;97.60
16263;DHT22;8239;48.594;8.598;2023-02-26T10:49:51;-1.50;97.90
16263;DHT22;8239;48.594;8.598;2023-02-26T10:52:20;-1.60;98.40
16263;DHT22;8239;48.594;8.598;2023-02-26T10:55:04;-1.70;98.90
16263;DHT22;8239;48.594;8.598;2023-02-26T10:57:34;-1.70;99.40
16263;DHT22;8239;48.594;8.598;2023-02-26T11:00:05;-1.80;99.90
16263;DHT22;8239;48.594;8.598;2023-02-26T11:02:39;-1.80;99.90
16263;DHT22;8239;48.594;8.598;2023-02-26T11:05:14;-1.70;99.90
16263;DHT22;8239;48.594;8.598;2023-02-26T11:07:42;-1.60;99.90
16263;DHT22;8239;48.594;8.598;2023-02-26T11:10:16;-1.30;99.90
16263;DHT22;8239;48.594;8.598;2023-02-26T11:12:44;-1.10;99.90
16263;DHT22;8239;48.594;8.598;2023-02-26T11:15:13;-0.80;99.90
16263;DHT22;8239;48.594;8.598;2023-02-26T11:17:42;-0.70;99.90
16263;DHT22;8239;48.594;8.598;2023-02-26T11:20:18;-0.50;99.90
16263;DHT22;8239;48.594;8.598;2023-02-26T11:22:51;-0.40;99.90
16263;DHT22;8239;48.594;8.598;2023-02-26T11:25:23;-0.30;99.70
16263;DHT22;8239;48.594;8.598;2023-02-26T11:27:58;-0.10;99.80
16263;DHT22;8239;48.594;8.598;2023-02-26T11:30:26;0.00;99.50
16263;DHT22;8239;48.594;8.598;2023-02-26T11:33:03;0.30;98.90
16263;DHT22;8239;48.594;8.598;2023-02-26T11:35:30;0.30;97.30
16263;DHT22;8239;48.594;8.598;2023-02-26T11:37:59;0.40;96.60
16263;DHT22;8239;48.594;8.598;2023-02-26T11:40:33;0.30;96.50
16263;DHT22;8239;48.594;8.598;2023-02-26T11:43:04;0.30;96.10
16263;DHT22;8239;48.594;8.598;2023-02-26T11:45:34;0.20;96.10
16263;DHT22;8239;48.594;8.598;2023-02-26T11:48:05;0.10;96.40
16263;DHT22;8239;48.594;8.598;2023-02-26T11:50:38;0.00;96.10
16263;DHT22;8239;48.594;8.598;2023-02-26T11:53:25;0.00;96.50
16263;DHT22;8239;48.594;8.598;2023-02-26T11:55:58;0.10;96.90
16263;DHT22;8239;48.594;8.598;2023-02-26T11:58:29;0.20;96.10
16263;DHT22;8239;48.594;8.598;2023-02-26T12:00:58;0.20;95.70
16263;DHT22;8239;48.594;8.598;2023-02-26T12:03:31;0.20;95.90
16263;DHT22;8239;48.594;8.598;2023-02-26T12:06:00;0.30;95.90
16263;DHT22;8239;48.594;8.598;2023-02-26T12:08:30;0.40;96.00
16263;DHT22;8239;48.594;8.598;2023-02-26T12:11:17;0.50;95.80
16263;DHT22;8239;48.594;8.598;2023-02-26T12:14:00;0.50;95.10
16263;DHT22;8239;48.594;8.598;2023-02-26T12:16:38;0.60;95.00
16263;DHT22;8239;48.594;8.598;2023-02-26T12:19:17;0.60;95.00
16263;DHT22;8239;48.594;8.598;2023-02-26T12:22:07;0.60;95.00
16263;DHT22;8239;48.594;8.598;2023-02-26T12:24:57;0.80;95.20
16263;DHT22;8239;48.594;8.598;2023-02-26T12:27:38;0.80;94.90
16263;DHT22;8239;48.594;8.598;2023-02-26T12:30:41;0.80;94.20
16263;DHT22;8239;48.594;8.598;2023-02-26T12:33:22;0.70;93.90
16263;DHT22;8239;48.594;8.598;2023-02-26T12:36:04;0.60;94.10
16263;DHT22;8239;48.594;8.598;2023-02-26T12:38:40;0.50;93.90
16263;DHT22;8239;48.594;8.598;2023-02-26T12:41:39;0.50;94.00
16263;DHT22;8239;48.594;8.598;2023-02-26T12:44:19;0.40;94.10
16263;DHT22;8239;48.594;8.598;2023-02-26T12:47:00;0.30;93.90
16263;DHT22;8239;48.594;8.598;2023-02-26T12:49:45;0.20;94.10
16263;DHT22;8239;48.594;8.598;2023-02-26T12:52:48;0.10;94.50
16263;DHT22;8239;48.594;8.598;2023-02-26T12:55:26;0.10;95.00
16263;DHT22;8239;48.594;8.598;2023-02-26T12:58:25;0.00;95.00
16263;DHT22;8239;48.594;8.598;2023-02-26T13:01:07;-0.20;95.20
16263;DHT22;8239;48.594;8.598;2023-02-26T13:09:44;-0.20;96.30
16263;DHT22;8239;48.594;8.598;2023-02-26T13:12:28;-0.20;96.20
16263;DHT22;8239;48.594;8.598;2023-02-26T13:15:03;-0.10;95.60
16263;DHT22;8239;48.594;8.598;2023-02-26T13:17:36;0.00;95.60
16263;DHT22;8239;48.594;8.598;2023-02-26T13:20:11;0.20;95.20
16263;DHT22;8239;48.594;8.598;2023-02-26T13:22:43;0.30;94.70
16263;DHT22;8239;48.594;8.598;2023-02-26T13:25:18;0.30;94.70
16263;DHT22;8239;48.594;8.598;2023-02-26T13:27:48;0.30;94.10
16263;DHT22;8239;48.594;8.598;2023-02-26T13:30:22;0.10;93.80
16263;DHT22;8239;48.594;8.598;2023-02-26T13:32:54;-0.10;94.10
16263;DHT22;8239;48.594;8.598;2023-02-26T13:35:26;-0.20;94.30
16263;DHT22;8239;48.594;8.598;2023-02-26T13:37:56;-0.30;94.90
16263;DHT22;8239;48.594;8.598;2023-02-26T13:40:55;-0.30;95.40
16263;DHT22;8239;48.594;8.598;2023-02-26T13:43:40;-0.30;95.80
16263;DHT22;8239;48.594;8.598;2023-02-26T13:46:23;0.00;96.10
16263;DHT22;8239;48.594;8.598;2023-02-26T13:48:59;0.20;95.80
16263;DHT22;8239;48.594;8.598;2023-02-26T13:51:33;0.40;95.60
16263;DHT22;8239;48.594;8.598;2023-02-26T13:54:07;0.60;95.50
16263;DHT22;8239;48.594;8.598;2023-02-26T13:56:58;0.70;94.80
16263;DHT22;8239;48.594;8.598;2023-02-26T13:59:37;0.70;94.50
16263;DHT22;8239;48.594;8.598;2023-02-26T14:02:44;0.70;95.70
16263;DHT22;8239;48.594;8.598;2023-02-26T14:05:34;0.70;95.10
16263;DHT22;8239;48.594;8.598;2023-02-26T14:11:37;0.50;94.10
16263;DHT22;8239;48.594;8.598;2023-02-26T14:16:54;0.30;93.70
16263;DHT22;8239;48.594;8.598;2023-02-26T14:19:26;0.30;93.80
16263;DHT22;8239;48.594;8.598;2023-02-26T14:21:55;0.40;93.40
16263;DHT22;8239;48.594;8.598;2023-02-26T14:24:30;0.40;93.20
16263;DHT22;8239;48.594;8.598;2023-02-26T14:27:33;0.50;93.10
16263;DHT22;8239;48.594;8.598;2023-02-26T14:30:16;0.70;93.10
16263;DHT22;8239;48.594;8.598;2023-02-26T14:33:08;0.90;93.00
16263;DHT22;8239;48.594;8.598;2023-02-26T14:35:43;1.10;93.00
16263;DHT22;8239;48.594;8.598;2023-02-26T14:38:13;1.30;93.00
16263;DHT22;8239;48.594;8.598;2023-02-26T14:40:46;1.60;93.30
16263;DHT22;8239;48.594;8.598;2023-02-26T14:43:17;1.90;92.80
16263;DHT22;8239;48.594;8.598;2023-02-26T14:45:46;2.10;92.10
16263;DHT22;8239;48.594;8.598;2023-02-26T14:48:16;2.60;92.40
16263;DHT22;8239;48.594;8.598;2023-02-26T14:54:02;4.80;91.20
16263;DHT22;8239;48.594;8.598;2023-02-26T14:56:41;6.80;84.80
16263;DHT22;8239;48.594;8.598;2023-02-26T14:59:32;9.00;74.20
16263;DHT22;8239;48.594;8.598;2023-02-26T15:02:13;10.00;55.80
16263;DHT22;8239;48.594;8.598;2023-02-26T15:05:03;9.50;51.30
16263;DHT22;8239;48.594;8.598;2023-02-26T15:07:46;8.70;50.30
16263;DHT22;8239;48.594;8.598;2023-02-26T15:10:27;7.50;50.80
16263;DHT22;8239;48.594;8.598;2023-02-26T15:13:09;6.40;52.10
16263;DHT22;8239;48.594;8.598;2023-02-26T15:15:47;5.40;53.60
16263;DHT22;8239;48.594;8.598;2023-02-26T15:18:51;4.80;56.20
16263;DHT22;8239;48.594;8.598;2023-02-26T15:21:29;4.70;58.00
16263;DHT22;8239;48.594;8.598;2023-02-26T15:24:00;4.60;57.30
16263;DHT22;8239;48.594;8.598;2023-02-26T15:26:31;4.40;57.10
16263;DHT22;8239;48.594;8.598;2023-02-26T15:29:01;3.90;56.70
16263;DHT22;8239;48.594;8.598;2023-02-26T15:31:32;3.20;57.10
16263;DHT22;8239;48.594;8.598;2023-02-26T15:34:00;2.60;58.00
16263;DHT22;8239;48.594;8.598;2023-02-26T15:36:30;2.10;59.10
16263;DHT22;8239;48.594;8.598;2023-02-26T15:39:00;1.70;60.30
16263;DHT22;8239;48.594;8.598;2023-02-26T15:41:30;1.30;61.70
16263;DHT22;8239;48.594;8.598;2023-02-26T15:44:01;1.20;62.70
16263;DHT22;8239;48.594;8.598;2023-02-26T15:46:32;1.50;66.30
16263;DHT22;8239;48.594;8.598;2023-02-26T15:49:04;2.20;66.60
16263;DHT22;8239;48.594;8.598;2023-02-26T15:51:34;2.80;64.10
16263;DHT22;8239;48.594;8.598;2023-02-26T15:54:03;2.90;61.00
16263;DHT22;8239;48.594;8.598;2023-02-26T15:56:34;2.80;60.50
16263;DHT22;8239;48.594;8.598;2023-02-26T15:59:05;2.50;60.50
16263;DHT22;8239;48.594;8.598;2023-02-26T16:01:33;2.20;61.60
16263;DHT22;8239;48.594;8.598;2023-02-26T16:04:03;2.00;62.40
16263;DHT22;8239;48.594;8.598;2023-02-26T16:06:36;1.90;63.20
16263;DHT22;8239;48.594;8.598;2023-02-26T16:09:05;1.80;64.10
16263;DHT22;8239;48.594;8.598;2023-02-26T16:11:37;1.80;64.00
16263;DHT22;8239;48.594;8.598;2023-02-26T16:14:06;1.70;64.30
16263;DHT22;8239;48.594;8.598;2023-02-26T16:16:40;1.40;65.30
16263;DHT22;8239;48.594;8.598;2023-02-26T16:19:12;1.10;66.20
16263;DHT22;8239;48.594;8.598;2023-02-26T16:21:42;0.80;67.20
16263;DHT22;8239;48.594;8.598;2023-02-26T16:24:14;0.50;68.20
16263;DHT22;8239;48.594;8.598;2023-02-26T16:26:44;0.30;68.90
16263;DHT22;8239;48.594;8.598;2023-02-26T16:29:15;0.00;70.20
16263;DHT22;8239;48.594;8.598;2023-02-26T16:31:46;-0.30;71.00
16263;DHT22;8239;48.594;8.598;2023-02-26T16:34:32;-0.40;72.20
16263;DHT22;8239;48.594;8.598;2023-02-26T16:37:23;-0.50;73.30
16263;DHT22;8239;48.594;8.598;2023-02-26T16:39:56;-0.60;74.30
16263;DHT22;8239;48.594;8.598;2023-02-26T16:42:34;-0.70;75.00